Windsor Locks, CT

7:49 AM EDT on May 27, 2018 (GMT -0400)
Senegal Island | | Change Station

Elev 95 ft 41.93 °N, 72.65 °W | Updated 24 seconds ago

Overcast
Overcast
63.2 °F
Feels Like 63.2 °F
N
4.0
Wind Variable Wind from ESE

Today
High -- | Low -- °F
--% Chance of Precip.
Yesterday
High -- | Low -- °F
Precip. -- in
Pressure 30.04 in
Visibility 10.0 miles
Clouds Mostly Cloudy 1700 ft
Overcast 10000 ft
Dew Point 57 °F
Humidity 81%
Rainfall 0.00 in
Snow Depth Not available.
5:20 AM 8:15 PM
Waxing Gibbous, 96% visible
METAR KBDL 271051Z 04012KT 10SM BKN017 OVC100 19/16 A3005 RMK AO2 SLP173 T01890156
Pressure 30.04 in
Visibility 10.0 miles
Clouds Mostly Cloudy 1700 ft
Overcast 10000 ft
Dew Point 57 °F
Humidity 81%
Rainfall 0.00 in
Snow Depth Not available.
5:20 AM 8:15 PM
Waxing Gibbous, 96% visible
METAR KBDL 271051Z 04012KT 10SM BKN017 OVC100 19/16 A3005 RMK AO2 SLP173 T01890156

Get Severe Weather Alerts

Thanks for signing up!

Be on the lookout for a verification email in your inbox.

You'll start receiving the daily forecast at 6 AM.

×

10-Day Weather Forecast

Almanac

Astronomy

May. 27, 2018 Rise Set
Actual Time
Civil Twilight
Nautical Twilight
Astronomical Twilight
Moon
Length of Visible Light
Length of Day
Tomorrow will be .
, % of the Moon is Illuminated

Today's Extremes

State Highs State Lows

Community

WunderPhotos

Category 6

Welcome to Category 6. This is the collective home for Weather Underground's featured writeups by Dr. Jeff Masters (right), Bob Henson (left), Chris Burt, and other regular contributors.

Nearby

Air Quality

  Air Quality AQ Index Pollutant
Not available.

Snow Depth

Station Depth Elevation

Earthquake Activity

City Distance Mag. Time & Date
Minimum magnitude displayed is 2.5.

Coastal Water Temperatures

Place Temperature

Stations

Nearby Weather Stations

Station Location Temp. Windchill Dew Point Humidity Wind Precip. Elev Updated Type
                   

Watches & Warnings

There are currently no watches in effect.